sensor_id;sensor_type;location;lat;lon;timestamp;pressure;altitude;pressure_sealevel;temperature;humidity
43281;BME280;62175;49.416;8.690;2022-12-20T00:01:48;101058.88;;;6.37;53.66
43281;BME280;62175;49.416;8.690;2022-12-20T00:04:15;101062.67;;;6.06;54.39
43281;BME280;62175;49.416;8.690;2022-12-20T00:06:42;101068.16;;;6.28;54.41
43281;BME280;62175;49.416;8.690;2022-12-20T00:09:10;101072.52;;;5.87;54.20
43281;BME280;62175;49.416;8.690;2022-12-20T00:11:39;101057.34;;;6.22;53.97
43281;BME280;62175;49.416;8.690;2022-12-20T00:14:07;101042.06;;;6.09;53.64
43281;BME280;62175;49.416;8.690;2022-12-20T00:16:36;101028.09;;;6.09;54.25
43281;BME280;62175;49.416;8.690;2022-12-20T00:19:05;101022.15;;;6.22;53.90
43281;BME280;62175;49.416;8.690;2022-12-20T00:21:34;101023.85;;;5.93;54.30
43281;BME280;62175;49.416;8.690;2022-12-20T00:24:02;101014.51;;;6.22;54.27
43281;BME280;62175;49.416;8.690;2022-12-20T00:26:31;101010.16;;;6.28;53.92
43281;BME280;62175;49.416;8.690;2022-12-20T00:28:59;101019.31;;;6.37;54.42
43281;BME280;62175;49.416;8.690;2022-12-20T00:31:28;101007.10;;;6.51;53.47
43281;BME280;62175;49.416;8.690;2022-12-20T00:33:57;101008.05;;;6.49;53.84
43281;BME280;62175;49.416;8.690;2022-12-20T00:36:28;101027.78;;;6.49;53.73
43281;BME280;62175;49.416;8.690;2022-12-20T00:38:57;101017.53;;;6.27;54.29
43281;BME280;62175;49.416;8.690;2022-12-20T00:41:25;101021.48;;;6.23;53.60
43281;BME280;62175;49.416;8.690;2022-12-20T00:43:53;101010.49;;;6.17;53.99
43281;BME280;62175;49.416;8.690;2022-12-20T00:46:20;101011.45;;;6.56;53.50
43281;BME280;62175;49.416;8.690;2022-12-20T00:48:47;101008.77;;;6.38;53.72
43281;BME280;62175;49.416;8.690;2022-12-20T00:51:16;101012.00;;;6.46;53.73
43281;BME280;62175;49.416;8.690;2022-12-20T00:53:44;101005.81;;;6.23;54.53
43281;BME280;62175;49.416;8.690;2022-12-20T00:56:12;101007.33;;;6.17;53.96
43281;BME280;62175;49.416;8.690;2022-12-20T00:58:41;101009.01;;;6.14;54.05
43281;BME280;62175;49.416;8.690;2022-12-20T01:01:16;101006.96;;;6.23;54.22
43281;BME280;62175;49.416;8.690;2022-12-20T01:03:44;100997.67;;;6.30;53.86
43281;BME280;62175;49.416;8.690;2022-12-20T01:06:11;101010.98;;;6.29;53.79
43281;BME280;62175;49.416;8.690;2022-12-20T01:08:39;100993.01;;;6.42;54.32
43281;BME280;62175;49.416;8.690;2022-12-20T01:11:09;101003.41;;;6.24;53.95
43281;BME280;62175;49.416;8.690;2022-12-20T01:13:40;101006.21;;;6.82;53.96
43281;BME280;62175;49.416;8.690;2022-12-20T01:16:10;101011.78;;;6.35;54.05
43281;BME280;62175;49.416;8.690;2022-12-20T01:18:38;101007.21;;;6.51;54.18
43281;BME280;62175;49.416;8.690;2022-12-20T01:21:08;101022.94;;;6.30;53.99
43281;BME280;62175;49.416;8.690;2022-12-20T01:23:36;101019.77;;;6.34;54.47
43281;BME280;62175;49.416;8.690;2022-12-20T01:26:05;101021.84;;;6.73;54.01
43281;BME280;62175;49.416;8.690;2022-12-20T01:28:33;100999.49;;;6.53;53.68
43281;BME280;62175;49.416;8.690;2022-12-20T01:31:03;100988.79;;;6.13;54.65
43281;BME280;62175;49.416;8.690;2022-12-20T01:33:31;100989.41;;;6.30;54.10
43281;BME280;62175;49.416;8.690;2022-12-20T01:36:00;100988.15;;;6.27;54.43
43281;BME280;62175;49.416;8.690;2022-12-20T01:38:28;100975.99;;;6.39;54.06
43281;BME280;62175;49.416;8.690;2022-12-20T01:40:56;100985.79;;;6.32;54.24
43281;BME280;62175;49.416;8.690;2022-12-20T01:43:25;100984.91;;;6.64;54.65
43281;BME280;62175;49.416;8.690;2022-12-20T01:46:30;100988.44;;;6.53;54.12
43281;BME280;62175;49.416;8.690;2022-12-20T01:49:01;100999.24;;;6.86;54.75
43281;BME280;62175;49.416;8.690;2022-12-20T01:51:35;100988.80;;;6.49;54.39
43281;BME280;62175;49.416;8.690;2022-12-20T01:54:08;101002.03;;;6.42;54.44
43281;BME280;62175;49.416;8.690;2022-12-20T01:56:38;100988.63;;;6.67;54.11
43281;BME280;62175;49.416;8.690;2022-12-20T01:59:07;100979.95;;;6.71;53.86
43281;BME280;62175;49.416;8.690;2022-12-20T02:01:34;100980.61;;;6.46;54.32
43281;BME280;62175;49.416;8.690;2022-12-20T02:04:01;100961.44;;;6.53;54.25
43281;BME280;62175;49.416;8.690;2022-12-20T02:06:29;100976.86;;;6.52;54.43
43281;BME280;62175;49.416;8.690;2022-12-20T02:08:58;100979.60;;;6.96;54.61
43281;BME280;62175;49.416;8.690;2022-12-20T02:11:59;100977.73;;;6.64;54.85
43281;BME280;62175;49.416;8.690;2022-12-20T02:15:27;100988.81;;;6.65;55.12
43281;BME280;62175;49.416;8.690;2022-12-20T02:18:07;100957.02;;;6.98;54.49
43281;BME280;62175;49.416;8.690;2022-12-20T02:21:03;100966.54;;;6.85;54.97
43281;BME280;62175;49.416;8.690;2022-12-20T02:24:23;100956.61;;;6.70;55.16
43281;BME280;62175;49.416;8.690;2022-12-20T02:27:16;100955.24;;;6.42;55.16
43281;BME280;62175;49.416;8.690;2022-12-20T02:30:10;100945.24;;;6.30;55.44
43281;BME280;62175;49.416;8.690;2022-12-20T02:32:43;100940.60;;;6.76;54.82
43281;BME280;62175;49.416;8.690;2022-12-20T02:35:19;100935.02;;;6.46;55.10
43281;BME280;62175;49.416;8.690;2022-12-20T02:37:49;100941.40;;;6.73;55.01
43281;BME280;62175;49.416;8.690;2022-12-20T02:40:20;100928.82;;;6.71;55.48
43281;BME280;62175;49.416;8.690;2022-12-20T02:42:51;100920.23;;;6.47;55.60
43281;BME280;62175;49.416;8.690;2022-12-20T02:45:21;100902.96;;;6.74;55.06
43281;BME280;62175;49.416;8.690;2022-12-20T02:47:53;100910.13;;;6.64;55.36
43281;BME280;62175;49.416;8.690;2022-12-20T02:50:24;100900.40;;;6.68;55.61
43281;BME280;62175;49.416;8.690;2022-12-20T02:52:53;100901.73;;;6.83;55.73
43281;BME280;62175;49.416;8.690;2022-12-20T02:55:40;100897.60;;;6.65;55.64
43281;BME280;62175;49.416;8.690;2022-12-20T02:58:14;100890.00;;;6.50;56.22
43281;BME280;62175;49.416;8.690;2022-12-20T03:00:45;100888.91;;;6.55;55.84
43281;BME280;62175;49.416;8.690;2022-12-20T03:03:16;100888.72;;;6.50;56.34
43281;BME280;62175;49.416;8.690;2022-12-20T03:05:45;100900.30;;;6.66;55.76
43281;BME280;62175;49.416;8.690;2022-12-20T03:08:12;100906.65;;;6.70;55.43
43281;BME280;62175;49.416;8.690;2022-12-20T03:10:40;100898.77;;;6.85;55.43
43281;BME280;62175;49.416;8.690;2022-12-20T03:13:07;100897.36;;;6.59;55.81
43281;BME280;62175;49.416;8.690;2022-12-20T03:15:34;100898.69;;;6.81;55.39
43281;BME280;62175;49.416;8.690;2022-12-20T03:18:01;100898.58;;;6.67;55.74
43281;BME280;62175;49.416;8.690;2022-12-20T03:20:28;100898.52;;;6.68;55.56
43281;BME280;62175;49.416;8.690;2022-12-20T03:22:56;100899.01;;;6.75;55.64
43281;BME280;62175;49.416;8.690;2022-12-20T03:25:23;100889.43;;;6.74;55.88
43281;BME280;62175;49.416;8.690;2022-12-20T03:27:50;100904.47;;;6.72;55.63
43281;BME280;62175;49.416;8.690;2022-12-20T03:30:18;100907.96;;;6.73;55.58
43281;BME280;62175;49.416;8.690;2022-12-20T03:32:45;100912.02;;;6.64;56.07
43281;BME280;62175;49.416;8.690;2022-12-20T03:35:13;100914.01;;;6.65;55.59
43281;BME280;62175;49.416;8.690;2022-12-20T03:37:40;100920.33;;;6.65;56.12
43281;BME280;62175;49.416;8.690;2022-12-20T03:40:09;100909.42;;;6.48;56.83
43281;BME280;62175;49.416;8.690;2022-12-20T03:42:37;100911.36;;;6.85;56.46
43281;BME280;62175;49.416;8.690;2022-12-20T03:45:08;100903.38;;;6.63;55.97
43281;BME280;62175;49.416;8.690;2022-12-20T03:47:35;100901.09;;;6.72;55.92
43281;BME280;62175;49.416;8.690;2022-12-20T03:50:03;100898.41;;;6.67;56.21
43281;BME280;62175;49.416;8.690;2022-12-20T03:52:30;100896.30;;;6.82;56.45
43281;BME280;62175;49.416;8.690;2022-12-20T03:54:58;100899.83;;;6.70;55.88
43281;BME280;62175;49.416;8.690;2022-12-20T03:57:24;100893.31;;;6.74;56.36
43281;BME280;62175;49.416;8.690;2022-12-20T03:59:52;100893.51;;;6.39;56.31
43281;BME280;62175;49.416;8.690;2022-12-20T04:02:20;100880.73;;;6.36;56.47
43281;BME280;62175;49.416;8.690;2022-12-20T04:04:48;100870.81;;;6.65;56.74
43281;BME280;62175;49.416;8.690;2022-12-20T04:07:16;100868.74;;;6.46;56.20
43281;BME280;62175;49.416;8.690;2022-12-20T04:09:43;100873.69;;;6.73;55.36
43281;BME280;62175;49.416;8.690;2022-12-20T04:12:10;100866.76;;;6.58;56.22
43281;BME280;62175;49.416;8.690;2022-12-20T04:14:37;100880.97;;;6.57;56.08
43281;BME280;62175;49.416;8.690;2022-12-20T04:17:06;100857.96;;;6.77;56.07
43281;BME280;62175;49.416;8.690;2022-12-20T04:19:34;100869.12;;;6.69;56.07
43281;BME280;62175;49.416;8.690;2022-12-20T04:22:02;100859.29;;;6.77;56.77
43281;BME280;62175;49.416;8.690;2022-12-20T04:24:29;100873.18;;;6.62;55.87
43281;BME280;62175;49.416;8.690;2022-12-20T04:26:57;100868.41;;;6.88;56.21
43281;BME280;62175;49.416;8.690;2022-12-20T04:29:24;100843.55;;;6.90;55.99
43281;BME280;62175;49.416;8.690;2022-12-20T04:31:51;100848.23;;;6.51;55.55
43281;BME280;62175;49.416;8.690;2022-12-20T04:34:19;100835.97;;;6.88;56.31
43281;BME280;62175;49.416;8.690;2022-12-20T04:36:46;100845.47;;;6.98;55.85
43281;BME280;62175;49.416;8.690;2022-12-20T04:39:13;100839.85;;;6.88;56.54
43281;BME280;62175;49.416;8.690;2022-12-20T04:41:41;100827.46;;;7.14;56.48
43281;BME280;62175;49.416;8.690;2022-12-20T04:44:07;100846.76;;;7.15;57.16
43281;BME280;62175;49.416;8.690;2022-12-20T04:46:35;100831.71;;;7.23;56.37
43281;BME280;62175;49.416;8.690;2022-12-20T04:49:02;100838.35;;;6.74;56.26
43281;BME280;62175;49.416;8.690;2022-12-20T04:51:30;100846.45;;;7.07;56.18
43281;BME280;62175;49.416;8.690;2022-12-20T04:53:57;100836.27;;;6.98;56.29
43281;BME280;62175;49.416;8.690;2022-12-20T04:56:26;100849.98;;;6.89;55.70
43281;BME280;62175;49.416;8.690;2022-12-20T04:58:56;100844.98;;;6.83;56.42
43281;BME280;62175;49.416;8.690;2022-12-20T05:01:23;100834.27;;;7.16;55.92
43281;BME280;62175;49.416;8.690;2022-12-20T05:03:51;100823.16;;;7.05;56.11
43281;BME280;62175;49.416;8.690;2022-12-20T05:06:18;100832.78;;;6.83;55.98
43281;BME280;62175;49.416;8.690;2022-12-20T05:08:46;100828.45;;;7.21;55.40
43281;BME280;62175;49.416;8.690;2022-12-20T05:11:12;100838.33;;;7.03;56.20
43281;BME280;62175;49.416;8.690;2022-12-20T05:13:40;100833.55;;;7.11;55.87
43281;BME280;62175;49.416;8.690;2022-12-20T05:16:07;100829.62;;;7.21;55.89
43281;BME280;62175;49.416;8.690;2022-12-20T05:18:35;100829.59;;;6.97;55.61
43281;BME280;62175;49.416;8.690;2022-12-20T05:21:03;100831.77;;;7.17;55.86
43281;BME280;62175;49.416;8.690;2022-12-20T05:23:31;100824.49;;;7.30;55.82
43281;BME280;62175;49.416;8.690;2022-12-20T05:25:58;100825.63;;;6.54;56.10
43281;BME280;62175;49.416;8.690;2022-12-20T05:28:25;100830.54;;;7.06;56.09
43281;BME280;62175;49.416;8.690;2022-12-20T05:30:52;100833.77;;;7.11;55.95
43281;BME280;62175;49.416;8.690;2022-12-20T05:33:19;100829.23;;;7.03;55.94
43281;BME280;62175;49.416;8.690;2022-12-20T05:35:46;100830.79;;;7.09;56.53
43281;BME280;62175;49.416;8.690;2022-12-20T05:38:14;100822.29;;;7.16;56.34
43281;BME280;62175;49.416;8.690;2022-12-20T05:40:41;100830.27;;;7.04;56.49
43281;BME280;62175;49.416;8.690;2022-12-20T05:43:08;100832.35;;;7.20;56.23
43281;BME280;62175;49.416;8.690;2022-12-20T05:45:36;100838.16;;;7.04;56.24
43281;BME280;62175;49.416;8.690;2022-12-20T05:48:03;100837.51;;;6.93;55.94
43281;BME280;62175;49.416;8.690;2022-12-20T05:50:30;100838.31;;;7.17;55.63
43281;BME280;62175;49.416;8.690;2022-12-20T05:52:57;100845.58;;;6.79;56.23
43281;BME280;62175;49.416;8.690;2022-12-20T05:55:24;100845.55;;;7.08;56.05
43281;BME280;62175;49.416;8.690;2022-12-20T05:57:51;100841.60;;;7.12;55.51
43281;BME280;62175;49.416;8.690;2022-12-20T06:00:19;100838.53;;;7.03;55.93
43281;BME280;62175;49.416;8.690;2022-12-20T06:02:47;100839.42;;;7.17;56.28
43281;BME280;62175;49.416;8.690;2022-12-20T06:05:14;100841.90;;;6.94;56.70
43281;BME280;62175;49.416;8.690;2022-12-20T06:07:41;100838.63;;;7.06;56.45
43281;BME280;62175;49.416;8.690;2022-12-20T06:10:10;100834.08;;;7.01;56.18
43281;BME280;62175;49.416;8.690;2022-12-20T06:12:39;100839.90;;;7.07;56.51
43281;BME280;62175;49.416;8.690;2022-12-20T06:15:08;100840.95;;;6.81;55.96
43281;BME280;62175;49.416;8.690;2022-12-20T06:17:35;100828.77;;;6.74;55.87
43281;BME280;62175;49.416;8.690;2022-12-20T06:20:03;100831.87;;;6.63;56.27
43281;BME280;62175;49.416;8.690;2022-12-20T06:22:30;100824.65;;;7.25;55.95
43281;BME280;62175;49.416;8.690;2022-12-20T06:24:58;100819.48;;;6.87;56.19
43281;BME280;62175;49.416;8.690;2022-12-20T06:27:25;100828.20;;;7.19;55.58
43281;BME280;62175;49.416;8.690;2022-12-20T06:29:53;100833.85;;;7.08;56.33
43281;BME280;62175;49.416;8.690;2022-12-20T06:32:20;100839.87;;;6.91;57.02
43281;BME280;62175;49.416;8.690;2022-12-20T06:34:47;100823.82;;;7.12;56.22
43281;BME280;62175;49.416;8.690;2022-12-20T06:37:14;100830.71;;;6.74;55.85
43281;BME280;62175;49.416;8.690;2022-12-20T06:39:42;100819.75;;;6.88;56.17
43281;BME280;62175;49.416;8.690;2022-12-20T06:42:09;100822.41;;;7.03;55.96
43281;BME280;62175;49.416;8.690;2022-12-20T06:44:37;100813.67;;;7.35;55.93
43281;BME280;62175;49.416;8.690;2022-12-20T06:47:03;100798.07;;;6.53;56.02
43281;BME280;62175;49.416;8.690;2022-12-20T06:49:31;100806.03;;;7.17;55.62
43281;BME280;62175;49.416;8.690;2022-12-20T06:51:58;100804.40;;;7.01;56.28
43281;BME280;62175;49.416;8.690;2022-12-20T06:54:25;100799.60;;;6.83;56.14
43281;BME280;62175;49.416;8.690;2022-12-20T06:56:52;100797.69;;;6.58;56.44
43281;BME280;62175;49.416;8.690;2022-12-20T06:59:19;100791.22;;;6.99;56.32
43281;BME280;62175;49.416;8.690;2022-12-20T07:01:46;100789.23;;;6.92;56.70
43281;BME280;62175;49.416;8.690;2022-12-20T07:04:14;100791.22;;;7.11;56.30
43281;BME280;62175;49.416;8.690;2022-12-20T07:06:41;100780.68;;;6.95;56.07
43281;BME280;62175;49.416;8.690;2022-12-20T07:09:08;100784.45;;;6.84;56.46
43281;BME280;62175;49.416;8.690;2022-12-20T07:11:36;100794.73;;;6.82;56.31
43281;BME280;62175;49.416;8.690;2022-12-20T07:14:04;100798.65;;;7.28;56.20
43281;BME280;62175;49.416;8.690;2022-12-20T07:16:31;100800.25;;;6.91;56.40
43281;BME280;62175;49.416;8.690;2022-12-20T07:18:58;100794.25;;;7.02;57.11
43281;BME280;62175;49.416;8.690;2022-12-20T07:21:25;100781.03;;;6.94;56.21
43281;BME280;62175;49.416;8.690;2022-12-20T07:23:54;100778.44;;;7.19;56.60
43281;BME280;62175;49.416;8.690;2022-12-20T07:26:21;100793.68;;;7.03;56.79
43281;BME280;62175;49.416;8.690;2022-12-20T07:28:48;100793.68;;;7.14;56.50
43281;BME280;62175;49.416;8.690;2022-12-20T07:31:15;100801.85;;;7.18;56.09
43281;BME280;62175;49.416;8.690;2022-12-20T07:33:43;100800.06;;;6.66;56.29
43281;BME280;62175;49.416;8.690;2022-12-20T07:36:12;100803.81;;;6.90;56.14
43281;BME280;62175;49.416;8.690;2022-12-20T07:38:40;100798.03;;;7.17;56.51
43281;BME280;62175;49.416;8.690;2022-12-20T07:41:07;100787.09;;;7.08;56.59
43281;BME280;62175;49.416;8.690;2022-12-20T07:43:35;100784.34;;;7.11;56.58
43281;BME280;62175;49.416;8.690;2022-12-20T07:46:04;100794.68;;;6.77;56.06
43281;BME280;62175;49.416;8.690;2022-12-20T07:48:33;100796.66;;;7.06;55.90
43281;BME280;62175;49.416;8.690;2022-12-20T07:51:02;100801.25;;;6.63;56.83
43281;BME280;62175;49.416;8.690;2022-12-20T07:53:33;100800.39;;;6.99;56.42
43281;BME280;62175;49.416;8.690;2022-12-20T07:56:04;100809.84;;;7.35;56.26
43281;BME280;62175;49.416;8.690;2022-12-20T07:58:34;100791.17;;;7.33;56.50
43281;BME280;62175;49.416;8.690;2022-12-20T08:01:04;100795.64;;;7.24;56.60
43281;BME280;62175;49.416;8.690;2022-12-20T08:03:36;100788.72;;;6.85;56.66
43281;BME280;62175;49.416;8.690;2022-12-20T08:06:06;100788.69;;;7.48;56.25
43281;BME280;62175;49.416;8.690;2022-12-20T08:08:36;100783.83;;;7.50;56.08
43281;BME280;62175;49.416;8.690;2022-12-20T08:11:12;100791.11;;;7.76;56.00
43281;BME280;62175;49.416;8.690;2022-12-20T08:13:40;100786.25;;;7.37;55.77
43281;BME280;62175;49.416;8.690;2022-12-20T08:16:07;100788.66;;;6.96;56.46
43281;BME280;62175;49.416;8.690;2022-12-20T08:18:34;100785.79;;;7.06;56.56
43281;BME280;62175;49.416;8.690;2022-12-20T08:21:01;100775.24;;;7.18;56.16
43281;BME280;62175;49.416;8.690;2022-12-20T08:23:28;100777.60;;;7.15;56.53
43281;BME280;62175;49.416;8.690;2022-12-20T08:25:56;100771.75;;;7.33;56.24
43281;BME280;62175;49.416;8.690;2022-12-20T08:28:25;100778.31;;;6.82;56.50
43281;BME280;62175;49.416;8.690;2022-12-20T08:30:59;100769.38;;;6.98;56.40
43281;BME280;62175;49.416;8.690;2022-12-20T08:33:27;100770.06;;;7.30;56.55
43281;BME280;62175;49.416;8.690;2022-12-20T08:35:57;100771.40;;;6.85;56.36
43281;BME280;62175;49.416;8.690;2022-12-20T08:38:26;100763.35;;;7.24;56.29
43281;BME280;62175;49.416;8.690;2022-12-20T08:40:52;100760.00;;;7.10;56.43
43281;BME280;62175;49.416;8.690;2022-12-20T08:43:20;100762.01;;;7.46;56.65
43281;BME280;62175;49.416;8.690;2022-12-20T08:45:51;100747.01;;;7.05;56.55
43281;BME280;62175;49.416;8.690;2022-12-20T08:48:19;100751.29;;;7.25;56.43
43281;BME280;62175;49.416;8.690;2022-12-20T08:50:46;100758.34;;;7.25;57.03
43281;BME280;62175;49.416;8.690;2022-12-20T08:53:13;100763.96;;;7.12;56.41
43281;BME280;62175;49.416;8.690;2022-12-20T08:55:40;100756.96;;;7.18;56.52
43281;BME280;62175;49.416;8.690;2022-12-20T08:58:08;100751.85;;;7.50;56.08
43281;BME280;62175;49.416;8.690;2022-12-20T09:00:35;100745.18;;;7.19;56.25
43281;BME280;62175;49.416;8.690;2022-12-20T09:03:02;100764.28;;;7.68;55.99
43281;BME280;62175;49.416;8.690;2022-12-20T09:05:30;100747.99;;;7.16;56.42
43281;BME280;62175;49.416;8.690;2022-12-20T09:07:57;100742.16;;;7.64;56.30
43281;BME280;62175;49.416;8.690;2022-12-20T09:10:24;100733.23;;;7.37;56.58
43281;BME280;62175;49.416;8.690;2022-12-20T09:12:51;100728.71;;;7.18;55.84
43281;BME280;62175;49.416;8.690;2022-12-20T09:15:18;100724.15;;;7.28;56.35
43281;BME280;62175;49.416;8.690;2022-12-20T09:17:48;100726.76;;;7.18;56.07
43281;BME280;62175;49.416;8.690;2022-12-20T09:20:15;100735.01;;;7.30;55.77
43281;BME280;62175;49.416;8.690;2022-12-20T09:22:42;100745.98;;;7.44;56.17
43281;BME280;62175;49.416;8.690;2022-12-20T09:25:09;100738.91;;;7.52;55.49
43281;BME280;62175;49.416;8.690;2022-12-20T09:27:37;100741.31;;;7.86;56.09
43281;BME280;62175;49.416;8.690;2022-12-20T09:30:06;100735.25;;;7.28;56.21
43281;BME280;62175;49.416;8.690;2022-12-20T09:32:33;100736.75;;;7.28;56.44
43281;BME280;62175;49.416;8.690;2022-12-20T09:35:00;100746.17;;;7.56;56.06
43281;BME280;62175;49.416;8.690;2022-12-20T09:37:29;100738.36;;;7.52;55.91
43281;BME280;62175;49.416;8.690;2022-12-20T09:39:57;100736.93;;;7.73;55.98
43281;BME280;62175;49.416;8.690;2022-12-20T09:42:25;100736.62;;;7.40;56.25
43281;BME280;62175;49.416;8.690;2022-12-20T09:44:56;100732.66;;;7.50;56.03
43281;BME280;62175;49.416;8.690;2022-12-20T09:47:24;100728.27;;;7.90;55.98
43281;BME280;62175;49.416;8.690;2022-12-20T09:49:54;100717.89;;;7.40;55.79
43281;BME280;62175;49.416;8.690;2022-12-20T09:52:38;100724.25;;;7.33;56.20
43281;BME280;62175;49.416;8.690;2022-12-20T09:55:20;100727.85;;;7.44;55.95
43281;BME280;62175;49.416;8.690;2022-12-20T09:58:01;100730.55;;;7.59;55.54
43281;BME280;62175;49.416;8.690;2022-12-20T10:00:35;100734.42;;;7.91;55.90
43281;BME280;62175;49.416;8.690;2022-12-20T10:03:09;100727.25;;;7.33;56.19
43281;BME280;62175;49.416;8.690;2022-12-20T10:05:47;100732.15;;;7.27;56.24
43281;BME280;62175;49.416;8.690;2022-12-20T10:08:24;100743.69;;;7.55;56.27
43281;BME280;62175;49.416;8.690;2022-12-20T10:10:56;100720.37;;;7.74;56.14
43281;BME280;62175;49.416;8.690;2022-12-20T10:13:36;100705.38;;;7.65;56.16
43281;BME280;62175;49.416;8.690;2022-12-20T10:16:18;100703.75;;;7.53;56.05
43281;BME280;62175;49.416;8.690;2022-12-20T10:18:59;100701.47;;;7.66;55.99
43281;BME280;62175;49.416;8.690;2022-12-20T10:21:38;100706.60;;;7.34;56.01
43281;BME280;62175;49.416;8.690;2022-12-20T10:24:11;100707.39;;;7.59;56.07
43281;BME280;62175;49.416;8.690;2022-12-20T10:26:43;100697.30;;;7.44;56.65
43281;BME280;62175;49.416;8.690;2022-12-20T10:29:10;100682.20;;;7.79;56.22
43281;BME280;62175;49.416;8.690;2022-12-20T10:31:38;100697.83;;;7.47;56.50
43281;BME280;62175;49.416;8.690;2022-12-20T10:34:06;100697.66;;;7.73;56.32
43281;BME280;62175;49.416;8.690;2022-12-20T10:36:35;100698.22;;;7.55;56.30
43281;BME280;62175;49.416;8.690;2022-12-20T10:39:05;100706.39;;;8.13;56.09
43281;BME280;62175;49.416;8.690;2022-12-20T10:41:46;100693.64;;;7.76;55.84
43281;BME280;62175;49.416;8.690;2022-12-20T10:44:17;100697.87;;;7.70;56.12
43281;BME280;62175;49.416;8.690;2022-12-20T10:46:47;100703.05;;;7.78;56.64
43281;BME280;62175;49.416;8.690;2022-12-20T10:49:33;100692.54;;;7.70;55.92
43281;BME280;62175;49.416;8.690;2022-12-20T10:52:03;100691.48;;;7.75;55.97
43281;BME280;62175;49.416;8.690;2022-12-20T10:54:38;100686.66;;;7.91;56.32
43281;BME280;62175;49.416;8.690;2022-12-20T10:57:17;100672.64;;;7.65;56.06
43281;BME280;62175;49.416;8.690;2022-12-20T10:59:49;100675.05;;;7.95;56.38
43281;BME280;62175;49.416;8.690;2022-12-20T11:02:27;100671.38;;;8.05;56.13
43281;BME280;62175;49.416;8.690;2022-12-20T11:04:57;100663.87;;;8.04;56.30
43281;BME280;62175;49.416;8.690;2022-12-20T11:07:27;100666.07;;;7.90;55.85
43281;BME280;62175;49.416;8.690;2022-12-20T11:09:56;100657.53;;;8.10;56.17
43281;BME280;62175;49.416;8.690;2022-12-20T11:12:24;100634.02;;;7.93;56.08
43281;BME280;62175;49.416;8.690;2022-12-20T11:15:07;100651.46;;;7.90;56.17
43281;BME280;62175;49.416;8.690;2022-12-20T11:17:37;100627.45;;;7.86;56.02
43281;BME280;62175;49.416;8.690;2022-12-20T11:20:21;100625.89;;;7.86;56.35
43281;BME280;62175;49.416;8.690;2022-12-20T11:22:58;100620.22;;;7.87;56.15
43281;BME280;62175;49.416;8.690;2022-12-20T11:25:39;100637.92;;;8.00;56.07
43281;BME280;62175;49.416;8.690;2022-12-20T11:28:23;100611.28;;;7.99;56.17
43281;BME280;62175;49.416;8.690;2022-12-20T11:31:03;100610.09;;;7.72;56.88
43281;BME280;62175;49.416;8.690;2022-12-20T11:34:20;100611.98;;;7.96;56.79
43281;BME280;62175;49.416;8.690;2022-12-20T11:37:02;100611.09;;;8.08;56.33
43281;BME280;62175;49.416;8.690;2022-12-20T11:39:37;100611.10;;;7.77;56.07
43281;BME280;62175;49.416;8.690;2022-12-20T11:42:14;100600.95;;;7.95;56.73
43281;BME280;62175;49.416;8.690;2022-12-20T11:44:52;100595.96;;;8.16;56.14
43281;BME280;62175;49.416;8.690;2022-12-20T11:47:39;100607.13;;;8.01;56.43
43281;BME280;62175;49.416;8.690;2022-12-20T11:50:19;100589.95;;;7.94;56.32
43281;BME280;62175;49.416;8.690;2022-12-20T11:52:58;100599.20;;;8.12;56.51
43281;BME280;62175;49.416;8.690;2022-12-20T11:55:27;100592.74;;;8.05;55.93
43281;BME280;62175;49.416;8.690;2022-12-20T11:58:00;100602.86;;;8.20;55.75
43281;BME280;62175;49.416;8.690;2022-12-20T12:00:31;100588.05;;;8.29;55.75
43281;BME280;62175;49.416;8.690;2022-12-20T12:03:07;100592.18;;;7.86;55.79
43281;BME280;62175;49.416;8.690;2022-12-20T12:05:40;100591.84;;;8.17;55.89
43281;BME280;62175;49.416;8.690;2022-12-20T12:08:14;100584.62;;;8.09;56.14
43281;BME280;62175;49.416;8.690;2022-12-20T12:10:47;100574.25;;;7.70;56.19
43281;BME280;62175;49.416;8.690;2022-12-20T12:13:20;100578.50;;;8.21;56.30
43281;BME280;62175;49.416;8.690;2022-12-20T12:15:56;100570.79;;;7.86;56.19
43281;BME280;62175;49.416;8.690;2022-12-20T12:18:27;100558.47;;;8.23;55.82
43281;BME280;62175;49.416;8.690;2022-12-20T12:21:00;100553.04;;;8.22;55.71
43281;BME280;62175;49.416;8.690;2022-12-20T12:23:35;100543.01;;;7.71;56.60
43281;BME280;62175;49.416;8.690;2022-12-20T12:26:11;100547.62;;;8.13;56.36
43281;BME280;62175;49.416;8.690;2022-12-20T12:28:39;100556.93;;;7.73;56.79
43281;BME280;62175;49.416;8.690;2022-12-20T12:31:08;100560.85;;;8.13;56.71
43281;BME280;62175;49.416;8.690;2022-12-20T12:33:42;100560.44;;;8.03;56.86
43281;BME280;62175;49.416;8.690;2022-12-20T12:36:29;100566.69;;;8.12;56.41
43281;BME280;62175;49.416;8.690;2022-12-20T12:39:15;100562.69;;;8.04;56.37
43281;BME280;62175;49.416;8.690;2022-12-20T12:42:21;100570.20;;;8.26;56.27
43281;BME280;62175;49.416;8.690;2022-12-20T12:44:57;100555.84;;;7.95;56.88
43281;BME280;62175;49.416;8.690;2022-12-20T12:47:33;100541.25;;;8.01;56.68
43281;BME280;62175;49.416;8.690;2022-12-20T12:50:05;100519.72;;;7.61;56.82
43281;BME280;62175;49.416;8.690;2022-12-20T12:52:43;100507.34;;;8.23;56.48
43281;BME280;62175;49.416;8.690;2022-12-20T12:55:45;100499.45;;;8.19;56.78
43281;BME280;62175;49.416;8.690;2022-12-20T12:58:14;100499.44;;;8.37;56.32
43281;BME280;62175;49.416;8.690;2022-12-20T13:00:57;100491.14;;;8.25;56.30
43281;BME280;62175;49.416;8.690;2022-12-20T13:03:39;100501.11;;;8.20;56.68
43281;BME280;62175;49.416;8.690;2022-12-20T13:06:55;100503.50;;;8.38;56.68
43281;BME280;62175;49.416;8.690;2022-12-20T13:09:41;100502.42;;;8.39;56.32
43281;BME280;62175;49.416;8.690;2022-12-20T13:12:54;100512.91;;;8.33;56.81
43281;BME280;62175;49.416;8.690;2022-12-20T13:16:12;100525.18;;;8.17;56.40
43281;BME280;62175;49.416;8.690;2022-12-20T13:19:03;100500.15;;;8.21;56.54
43281;BME280;62175;49.416;8.690;2022-12-20T13:21:38;100489.23;;;8.24;56.24
43281;BME280;62175;49.416;8.690;2022-12-20T13:24:48;100481.34;;;8.40;56.50